Time;durP1;ratioP1;P1;durP2;ratioP2;P2;SDS_P1;SDS_P2;PMS_P1;PMS_P2;Temp;Humidity;BMP_temperature;BMP_pressure;BME280_temperature;BME280_humidity;BME280_pressure;Samples;Min_cycle;Max_cycle;Signal;HPM_P1;HPM_P2
2022/05/30 00:02:25;;;;;;;4.80;4.00;;;;;;;24.18;46.71;100040.31;106635;1283;61259;-84
2022/05/30 00:04:50;;;;;;;5.50;3.80;;;;;;;24.18;46.79;100038.64;106890;1282;61300;-81
2022/05/30 00:07:16;;;;;;;6.50;3.40;;;;;;;24.18;46.77;100041.52;106947;1283;61385;-81
2022/05/30 00:09:42;;;;;;;5.70;3.70;;;;;;;24.18;46.73;100033.98;106823;1283;61125;-83
2022/05/30 00:12:08;;;;;;;4.70;3.60;;;;;;;24.18;46.68;100028.11;107219;1283;61921;-82
2022/05/30 00:14:34;;;;;;;4.70;3.40;;;;;;;24.18;46.80;100022.68;106897;1283;61278;-83
2022/05/30 00:17:01;;;;;;;6.10;3.50;;;;;;;24.17;46.74;100025.27;106878;1283;61231;-83
2022/05/30 00:19:27;;;;;;;4.50;3.30;;;;;;;24.18;46.80;100026.45;106875;1283;61263;-83
2022/05/30 00:21:55;;;;;;;4.70;3.50;;;;;;;24.17;46.81;100030.64;106897;1283;61272;-84
2022/05/30 00:24:20;;;;;;;5.80;3.70;;;;;;;24.17;46.77;100025.64;106953;1283;61291;-85
2022/05/30 00:26:46;;;;;;;5.70;4.20;;;;;;;24.17;46.75;100019.73;106901;1283;61364;-82
2022/05/30 00:29:12;;;;;;;6.10;3.90;;;;;;;24.17;46.79;100010.90;106902;1283;61243;-85
2022/05/30 00:31:37;;;;;;;8.40;3.70;;;;;;;24.17;46.81;100017.95;106893;1283;61335;-83
2022/05/30 00:34:03;;;;;;;6.60;4.00;;;;;;;24.16;46.75;100026.47;106956;1283;61311;-85
2022/05/30 00:36:29;;;;;;;5.80;3.70;;;;;;;24.16;46.73;100026.98;106788;1286;72558;-82
2022/05/30 00:38:57;;;;;;;6.80;3.80;;;;;;;24.16;46.74;100025.02;106590;1286;61473;-83
2022/05/30 00:41:23;;;;;;;;;;;;;;;24.15;46.84;100025.29;106773;1285;62241;-82
2022/05/30 00:43:49;;;;;;;5.30;3.80;;;;;;;24.13;46.91;100020.27;106603;1286;61216;-84
2022/05/30 00:46:18;;;;;;;6.20;4.00;;;;;;;24.14;46.84;100019.30;106446;1286;61810;-83
2022/05/30 00:48:49;;;;;;;4.90;3.80;;;;;;;24.14;46.75;100015.01;106478;1286;75543;-83
2022/05/30 00:51:18;;;;;;;6.40;3.90;;;;;;;24.13;46.81;100019.16;106538;1286;61240;-83
2022/05/30 00:53:45;;;;;;;4.60;3.50;;;;;;;24.13;46.80;100022.96;106418;1286;61142;-82
2022/05/30 00:56:10;;;;;;;5.00;3.60;;;;;;;24.13;46.85;100023.14;106498;1286;74115;-82
2022/05/30 00:58:39;;;;;;;6.50;4.20;;;;;;;24.13;46.89;100023.67;106790;1285;62591;-84
2022/05/30 01:01:05;;;;;;;5.80;3.60;;;;;;;24.13;46.82;100023.30;106536;1286;61986;-82
2022/05/30 01:06:33;;;;;;;6.20;3.80;;;;;;;24.14;46.77;100020.98;106783;1285;73124;-81
2022/05/30 01:09:06;;;;;;;5.40;3.90;;;;;;;24.13;46.81;100030.14;106601;1286;75575;-82
2022/05/30 01:11:51;;;;;;;5.50;3.60;;;;;;;24.13;46.88;100040.23;106681;1283;61610;-82
2022/05/30 01:14:17;;;;;;;4.40;3.40;;;;;;;24.13;46.90;100034.34;106836;1285;61256;-82
2022/05/30 01:16:43;;;;;;;7.10;4.30;;;;;;;24.13;46.92;100029.33;106659;1283;73732;-84
2022/05/30 01:19:17;;;;;;;7.40;4.20;;;;;;;24.12;46.95;100028.77;106889;1283;61241;-82
2022/05/30 01:22:01;;;;;;;4.40;3.60;;;;;;;24.12;46.83;100026.46;106902;1283;61155;-83
2022/05/30 01:24:49;;;;;;;6.30;4.20;;;;;;;24.12;46.98;100026.29;107188;1283;61289;-82
2022/05/30 01:27:42;;;;;;;5.60;4.20;;;;;;;24.12;46.90;100033.15;107204;1283;72744;-83
2022/05/30 01:30:11;;;;;;;5.70;4.00;;;;;;;24.12;46.90;100039.99;106673;1284;74605;-83
2022/05/30 01:32:36;;;;;;;5.70;4.30;;;;;;;24.12;46.91;100036.56;106732;1283;61113;-82
2022/05/30 01:35:02;;;;;;;5.30;4.10;;;;;;;24.12;46.90;100035.50;106959;1283;61208;-83
2022/05/30 01:37:28;;;;;;;5.70;3.60;;;;;;;24.12;46.92;100036.05;106861;1283;61287;-82
2022/05/30 01:39:54;;;;;;;6.50;4.20;;;;;;;24.11;46.91;100030.14;106893;1283;61419;-82
2022/05/30 01:42:19;;;;;;;7.80;3.90;;;;;;;24.12;46.86;100032.08;106610;1286;61353;-82
2022/05/30 01:44:45;;;;;;;5.90;3.90;;;;;;;24.12;46.99;100030.11;106835;1284;61274;-82
2022/05/30 01:47:11;;;;;;;5.20;3.90;;;;;;;24.11;46.93;100040.02;106920;1283;62162;-83
2022/05/30 01:49:37;;;;;;;5.80;3.80;;;;;;;24.12;46.88;100045.92;106834;1286;73730;-83
2022/05/30 01:52:03;;;;;;;6.00;4.00;;;;;;;24.12;46.90;100048.09;106870;1283;62155;-83
2022/05/30 01:54:28;;;;;;;5.80;3.70;;;;;;;24.11;47.00;100050.43;107224;1283;61304;-82
2022/05/30 01:56:54;;;;;;;6.20;4.40;;;;;;;24.11;46.96;100049.23;106874;1283;61399;-82
2022/05/30 01:59:20;;;;;;;6.00;4.30;;;;;;;24.11;46.93;100049.20;106865;1283;61287;-84
2022/05/30 02:01:45;;;;;;;5.40;3.60;;;;;;;24.11;46.91;100050.10;106856;1283;61287;-82
2022/05/30 02:04:12;;;;;;;6.10;4.00;;;;;;;24.11;46.93;100051.34;106761;1284;76128;-82
2022/05/30 02:06:38;;;;;;;5.40;4.10;;;;;;;24.11;46.92;100055.72;106835;1283;61295;-82
2022/05/30 02:09:04;;;;;;;5.70;4.00;;;;;;;24.11;46.99;100059.43;106873;1283;61292;-85
2022/05/30 02:11:29;;;;;;;4.80;3.60;;;;;;;24.11;46.97;100062.16;106868;1283;61243;-80
2022/05/30 02:13:55;;;;;;;6.30;4.00;;;;;;;24.11;46.95;100060.94;106853;1283;61262;-83
2022/05/30 02:19:05;;;;;;;5.30;4.30;;;;;;;24.10;46.91;100060.06;107199;1283;61152;-83
2022/05/30 02:21:32;;;;;;;5.50;4.10;;;;;;;24.10;46.97;100057.57;106890;1283;61215;-82
2022/05/30 02:23:58;;;;;;;6.90;3.90;;;;;;;24.10;46.95;100060.27;106492;1285;74610;-84
2022/05/30 02:26:24;;;;;;;7.00;4.00;;;;;;;24.10;46.95;100065.31;106879;1285;61360;-84
2022/05/30 02:28:50;;;;;;;5.80;4.00;;;;;;;24.10;47.01;100064.42;106822;1283;61235;-82
2022/05/30 02:31:16;;;;;;;5.50;3.90;;;;;;;24.10;47.00;100064.96;106882;1284;61278;-84
2022/05/30 02:36:41;;;;;;;5.30;3.50;;;;;;;24.09;46.90;100059.79;106848;1286;61164;-84
2022/05/30 02:39:15;;;;;;;5.80;4.10;;;;;;;24.09;47.00;100062.52;106928;1283;61124;-83
2022/05/30 02:41:40;;;;;;;6.20;4.00;;;;;;;24.09;47.02;100071.55;106558;1284;72701;-82
2022/05/30 02:44:06;;;;;;;6.90;3.80;;;;;;;24.09;47.04;100078.00;106838;1285;61271;-80
2022/05/30 02:46:32;;;;;;;5.80;4.00;;;;;;;24.09;46.94;100080.52;106889;1283;61246;-82
2022/05/30 02:48:57;;;;;;;6.10;4.10;;;;;;;24.09;47.03;100074.06;106881;1283;61708;-82
2022/05/30 02:51:24;;;;;;;7.20;4.50;;;;;;;24.09;46.93;100070.46;107167;1283;61422;-82
2022/05/30 02:53:49;;;;;;;5.60;4.00;;;;;;;24.08;46.99;100070.30;106907;1283;61249;-82
2022/05/30 02:56:15;;;;;;;5.90;3.90;;;;;;;24.09;46.95;100076.02;106906;1285;61286;-83
2022/05/30 02:58:42;;;;;;;6.60;4.20;;;;;;;24.09;46.96;100077.64;106867;1283;61172;-81
2022/05/30 03:01:09;;;;;;;5.90;4.00;;;;;;;24.08;46.88;100078.59;106840;1284;61093;-84
2022/05/30 03:03:34;;;;;;;5.60;4.00;;;;;;;24.09;46.91;100081.95;106842;1283;61360;-82
2022/05/30 03:06:00;;;;;;;6.00;4.10;;;;;;;24.09;47.02;100075.85;106880;1286;61257;-81
2022/05/30 03:08:26;;;;;;;5.20;3.80;;;;;;;24.08;46.98;100070.33;106869;1285;61218;-83
2022/05/30 03:10:51;;;;;;;7.30;4.00;;;;;;;24.09;46.98;100073.32;106889;1283;61291;-85
2022/05/30 03:13:17;;;;;;;6.50;4.50;;;;;;;24.09;46.97;100073.86;106685;1283;61279;-85
2022/05/30 03:15:43;;;;;;;5.50;4.20;;;;;;;24.09;47.00;100082.30;106718;1283;61305;-85
2022/05/30 03:18:11;;;;;;;5.10;3.50;;;;;;;24.09;46.99;100085.70;106771;1284;74685;-84
2022/05/30 03:20:37;;;;;;;5.20;4.00;;;;;;;24.09;47.00;100086.77;106847;1283;61317;-82
2022/05/30 03:23:03;;;;;;;6.30;4.10;;;;;;;24.09;47.04;100088.73;106902;1283;61652;-85
2022/05/30 03:25:29;;;;;;;6.10;4.90;;;;;;;24.09;46.97;100089.13;106856;1283;61272;-82
2022/05/30 03:27:55;;;;;;;8.60;4.50;;;;;;;24.09;46.95;100087.32;106897;1283;61234;-83
2022/05/30 03:30:21;;;;;;;6.90;4.70;;;;;;;24.09;46.92;100088.02;107215;1283;61316;-84
2022/05/30 03:32:47;;;;;;;7.20;4.70;;;;;;;24.09;46.96;100095.77;106909;1283;61623;-83
2022/05/30 03:35:13;;;;;;;8.10;4.30;;;;;;;24.09;46.99;100098.10;107210;1283;61393;-83
2022/05/30 03:37:39;;;;;;;12.40;5.00;;;;;;;24.09;46.94;100102.05;106794;1284;61307;-82
2022/05/30 03:40:06;;;;;;;14.10;4.90;;;;;;;24.09;46.99;100106.52;106840;1284;74404;-82
2022/05/30 03:42:32;;;;;;;11.70;5.20;;;;;;;24.09;47.02;100108.16;106883;1283;61264;-85
2022/05/30 03:44:59;;;;;;;10.70;5.10;;;;;;;24.09;46.88;100111.96;106861;1284;61166;-86
2022/05/30 03:47:25;;;;;;;15.50;5.10;;;;;;;24.09;46.91;100118.40;106880;1283;61248;-83
2022/05/30 03:49:58;;;;;;;6.60;4.70;;;;;;;24.09;46.83;100122.20;106883;1281;61299;-82
2022/05/30 03:52:23;;;;;;;7.10;4.70;;;;;;;24.08;46.90;100123.31;106884;1283;61368;-82
2022/05/30 03:54:49;;;;;;;10.50;4.50;;;;;;;24.09;46.98;100127.26;106871;1283;62515;-83
2022/05/30 03:57:15;;;;;;;7.50;5.00;;;;;;;24.08;46.88;100126.37;106861;1283;61306;-83
2022/05/30 03:59:40;;;;;;;6.50;5.00;;;;;;;24.08;46.89;100126.03;106633;1286;61110;-83
2022/05/30 04:02:06;;;;;;;8.30;4.50;;;;;;;24.08;46.93;100125.89;106895;1283;61323;-84
2022/05/30 04:04:32;;;;;;;6.90;4.40;;;;;;;24.07;46.84;100124.54;106979;1283;61295;-84
2022/05/30 04:06:57;;;;;;;8.90;4.90;;;;;;;24.07;46.86;100127.45;107152;1283;61285;-82
2022/05/30 04:09:23;;;;;;;7.30;4.90;;;;;;;24.06;46.91;100126.64;106929;1283;61315;-84
2022/05/30 04:11:48;;;;;;;7.10;4.90;;;;;;;24.05;46.89;100128.88;106905;1283;61294;-84
2022/05/30 04:14:14;;;;;;;10.70;4.90;;;;;;;24.04;46.94;100133.51;107229;1283;61362;-85
2022/05/30 04:16:40;;;;;;;9.30;4.90;;;;;;;24.03;47.02;100136.61;106846;1284;61273;-83
2022/05/30 04:19:05;;;;;;;8.60;4.90;;;;;;;24.02;47.04;100141.37;106692;1284;61314;-83
2022/05/30 04:21:31;;;;;;;9.20;5.30;;;;;;;24.02;46.94;100143.80;106844;1283;61263;-81
2022/05/30 04:23:57;;;;;;;8.40;5.30;;;;;;;24.01;47.03;100146.73;106567;1283;61379;-81
2022/05/30 04:26:22;;;;;;;7.60;4.80;;;;;;;24.00;47.04;100151.88;107087;1283;61238;-81
2022/05/30 04:28:48;;;;;;;9.70;5.60;;;;;;;23.98;46.99;100160.11;106773;1283;61291;-82
2022/05/30 04:31:14;;;;;;;15.60;5.40;;;;;;;23.96;47.07;100161.17;106688;1283;61465;-82
2022/05/30 04:33:40;;;;;;;12.20;6.20;;;;;;;23.96;47.04;100163.74;106993;1283;61356;-81
2022/05/30 04:36:07;;;;;;;10.00;5.90;;;;;;;23.96;47.12;100167.86;106686;1283;74965;-81
2022/05/30 04:38:33;;;;;;;11.10;6.10;;;;;;;23.95;47.10;100166.30;106614;1284;61338;-81
2022/05/30 04:40:59;;;;;;;11.90;7.40;;;;;;;23.95;47.15;100166.14;106642;1284;61412;-80
2022/05/30 04:43:24;;;;;;;8.40;5.80;;;;;;;23.92;47.06;100164.61;106932;1283;59777;-80
2022/05/30 04:46:13;;;;;;;11.00;6.40;;;;;;;23.88;47.15;100168.14;106643;1283;61253;-80
2022/05/30 04:48:38;;;;;;;10.60;7.20;;;;;;;23.87;47.18;100175.52;106567;1283;61795;-80
2022/05/30 04:51:04;;;;;;;10.40;6.30;;;;;;;23.83;47.20;100169.73;106631;1283;61393;-80
2022/05/30 04:53:31;;;;;;;8.70;5.60;;;;;;;23.75;47.22;100172.04;106645;1283;59578;-80
2022/05/30 04:55:56;;;;;;;12.30;6.40;;;;;;;23.71;47.23;100177.67;106560;1283;59851;-80
2022/05/30 04:58:22;;;;;;;10.60;6.00;;;;;;;23.68;47.33;100178.97;106635;1283;59721;-81
2022/05/30 05:00:48;;;;;;;9.30;6.50;;;;;;;23.66;47.30;100179.36;106698;1284;61182;-81
2022/05/30 05:03:13;;;;;;;14.80;6.70;;;;;;;23.65;47.43;100185.17;106758;1283;61208;-80
2022/05/30 05:05:39;;;;;;;9.80;6.10;;;;;;;23.66;47.64;100188.95;106641;1283;73769;-80
2022/05/30 05:08:20;;;;;;;11.70;6.10;;;;;;;23.66;47.66;100198.22;106698;1283;59762;-79
2022/05/30 05:10:53;;;;;;;16.50;5.90;;;;;;;23.68;47.83;100203.78;106584;1283;61509;-80
2022/05/30 05:13:19;;;;;;;11.00;5.30;;;;;;;23.71;47.90;100213.40;106477;1283;61183;-81
2022/05/30 05:15:44;;;;;;;17.20;6.10;;;;;;;23.74;47.94;100214.02;106908;1283;61317;-81
2022/05/30 05:18:10;;;;;;;10.10;4.70;;;;;;;23.75;47.86;100216.75;106933;1283;61229;-81
2022/05/30 05:20:41;;;;;;;8.30;5.20;;;;;;;23.77;47.88;100225.04;106901;1283;61362;-80
2022/05/30 05:23:07;;;;;;;8.50;6.20;;;;;;;23.79;47.86;100222.75;106679;1283;61293;-80
2022/05/30 05:25:36;;;;;;;10.70;5.80;;;;;;;23.81;47.84;100219.33;106944;1282;59679;-81
2022/05/30 05:28:02;;;;;;;8.90;5.40;;;;;;;23.83;47.82;100215.16;107563;1283;74572;-81
2022/05/30 05:30:27;;;;;;;8.80;4.90;;;;;;;23.85;47.87;100218.27;107359;1284;59482;-81
2022/05/30 05:32:53;;;;;;;9.50;4.90;;;;;;;23.88;47.86;100219.58;106971;1283;60094;-81
2022/05/30 05:35:18;;;;;;;10.80;5.20;;;;;;;23.90;47.88;100224.44;106580;1283;61350;-80
2022/05/30 05:37:44;;;;;;;8.10;5.00;;;;;;;23.92;47.88;100226.04;106640;1284;61163;-80
2022/05/30 05:40:10;;;;;;;9.70;5.10;;;;;;;23.94;47.86;100228.56;106948;1283;61280;-80
2022/05/30 05:42:36;;;;;;;11.70;5.20;;;;;;;23.96;47.99;100236.17;106879;1283;60478;-80
2022/05/30 05:45:02;;;;;;;9.10;5.40;;;;;;;23.98;47.95;100247.41;106738;1283;59478;-81
2022/05/30 05:47:28;;;;;;;10.20;5.90;;;;;;;23.99;47.99;100249.86;106915;1282;61267;-81
2022/05/30 05:49:54;;;;;;;12.60;5.50;;;;;;;23.98;48.03;100250.73;106536;1283;59685;-80
2022/05/30 05:52:20;;;;;;;18.30;6.40;;;;;;;23.97;48.13;100250.23;106387;1283;61319;-79
2022/05/30 05:54:46;;;;;;;15.10;6.90;;;;;;;23.95;48.12;100253.50;106669;1284;61310;-82
2022/05/30 05:57:11;;;;;;;23.00;6.60;;;;;;;23.91;48.23;100254.00;106822;1284;61114;-82
2022/05/30 05:59:37;;;;;;;13.90;6.60;;;;;;;23.87;48.16;100256.17;107066;1284;59344;-79
2022/05/30 06:02:06;;;;;;;18.30;10.60;;;;;;;23.81;48.16;100258.86;106824;1283;75551;-82
2022/05/30 06:04:31;;;;;;;11.60;8.20;;;;;;;23.72;48.16;100257.91;106736;1283;61310;-82
2022/05/30 06:07:01;;;;;;;18.70;6.80;;;;;;;23.65;48.36;100259.96;106496;1283;61131;-80
2022/05/30 06:09:27;;;;;;;;;;;;;;;23.64;48.49;100259.71;105966;1284;73107;-81
2022/05/30 06:11:56;;;;;;;30.00;6.50;;;;;;;23.60;48.70;100257.46;106627;1283;59812;-81
2022/05/30 06:14:22;;;;;;;;;;;;;;;23.65;48.86;100257.77;106070;1283;1291612;-81
2022/05/30 06:16:47;;;;;;;21.20;5.70;;;;;;;23.65;48.92;100260.16;106501;1284;60063;-78
2022/05/30 06:19:13;;;;;;;16.10;6.30;;;;;;;23.69;48.93;100268.90;106019;1285;61909;-81
2022/05/30 06:21:39;;;;;;;14.90;6.10;;;;;;;23.72;48.97;100264.13;106079;1284;61294;-80
2022/05/30 06:24:05;;;;;;;17.30;5.70;;;;;;;23.73;49.12;100264.04;106280;1283;61330;-80
2022/05/30 06:26:31;;;;;;;9.60;5.60;;;;;;;23.75;49.01;100268.55;106631;1283;59729;-81
2022/05/30 06:28:57;;;;;;;10.80;5.80;;;;;;;23.77;48.95;100268.75;106381;1283;61270;-80
2022/05/30 06:31:25;;;;;;;11.10;5.80;;;;;;;23.79;48.93;100268.55;106577;1286;73583;-80
2022/05/30 06:33:50;;;;;;;12.30;5.50;;;;;;;23.81;48.85;100273.04;107146;1283;75864;-80
2022/05/30 06:36:17;;;;;;;9.20;5.20;;;;;;;23.84;48.88;100274.60;106639;1284;59681;-80
2022/05/30 06:38:43;;;;;;;14.20;6.00;;;;;;;23.86;48.78;100271.37;106615;1283;61889;-79
2022/05/30 06:41:12;;;;;;;10.80;5.90;;;;;;;23.87;48.72;100268.91;106388;1283;61235;-81
2022/05/30 06:43:38;;;;;;;10.30;5.60;;;;;;;23.88;48.75;100268.80;106579;1284;73710;-80
2022/05/30 06:46:04;;;;;;;11.00;6.40;;;;;;;23.89;48.68;100272.51;106607;1283;61287;-80
2022/05/30 06:48:29;;;;;;;13.30;6.00;;;;;;;23.90;48.67;100274.98;106609;1286;61128;-80
2022/05/30 06:50:55;;;;;;;13.00;7.10;;;;;;;23.90;48.71;100272.77;106366;1284;61301;-79
2022/05/30 06:53:21;;;;;;;18.60;6.80;;;;;;;23.88;48.63;100269.90;106166;1283;61549;-80
2022/05/30 06:55:49;;;;;;;13.30;7.40;;;;;;;23.82;48.64;100270.45;105922;1284;61365;-82
2022/05/30 06:58:16;;;;;;;;;;;;;;;23.74;48.66;100269.52;105965;1283;61479;-80
2022/05/30 07:00:44;;;;;;;15.80;8.20;;;;;;;23.63;48.78;100270.90;106693;1284;59494;-81
2022/05/30 07:03:12;;;;;;;11.80;7.20;;;;;;;23.60;48.82;100269.15;106798;1283;72028;-81
2022/05/30 07:05:38;;;;;;;17.80;7.60;;;;;;;23.60;48.77;100273.35;106660;1283;73862;-81
2022/05/30 07:08:04;;;;;;;15.70;7.50;;;;;;;23.57;48.89;100272.84;106201;1284;61256;-79
2022/05/30 07:10:30;;;;;;;18.10;8.30;;;;;;;23.56;48.97;100281.23;105858;1284;61923;-80
2022/05/30 07:12:57;;;;;;;20.00;8.00;;;;;;;23.57;49.01;100287.41;107334;1283;59447;-79
2022/05/30 07:15:23;;;;;;;15.90;7.90;;;;;;;23.60;49.22;100294.88;105868;1284;61448;-80
2022/05/30 07:17:49;;;;;;;14.90;7.80;;;;;;;23.65;49.51;100295.52;105928;1284;61284;-79
2022/05/30 07:20:15;;;;;;;15.30;6.70;;;;;;;23.70;49.68;100298.66;106480;1283;61274;-79
2022/05/30 07:22:40;;;;;;;19.10;7.00;;;;;;;23.74;49.75;100296.13;106418;1284;61256;-79
2022/05/30 07:25:07;;;;;;;16.50;7.10;;;;;;;23.79;49.97;100298.95;106594;1283;61263;-79
2022/05/30 07:27:32;;;;;;;18.50;7.10;;;;;;;23.81;49.97;100304.30;106582;1283;61308;-79
2022/05/30 07:29:58;;;;;;;10.50;7.10;;;;;;;23.83;49.99;100308.65;106341;1284;62973;-79
2022/05/30 07:32:24;;;;;;;9.70;7.20;;;;;;;23.83;49.85;100314.40;106381;1283;59352;-80
2022/05/30 07:34:49;;;;;;;14.10;7.00;;;;;;;23.75;49.75;100316.50;106601;1283;61375;-78
2022/05/30 07:37:15;;;;;;;12.20;7.20;;;;;;;23.74;49.66;100317.89;106157;1284;61377;-79
2022/05/30 07:39:40;;;;;;;15.20;7.30;;;;;;;23.74;49.60;100325.95;106373;1283;61462;-79
2022/05/30 07:42:10;;;;;;;11.00;7.30;;;;;;;23.73;49.53;100331.23;106356;1284;61294;-79
2022/05/30 07:44:35;;;;;;;10.30;6.70;;;;;;;23.70;49.33;100334.77;106679;1283;61325;-80
2022/05/30 07:47:01;;;;;;;11.10;7.00;;;;;;;23.66;49.37;100337.07;106680;1284;61291;-80
2022/05/30 07:49:27;;;;;;;12.60;7.10;;;;;;;23.66;49.38;100340.33;106490;1283;61196;-81
2022/05/30 07:51:52;;;;;;;24.70;8.10;;;;;;;23.66;49.38;100346.80;106070;1283;61452;-81
2022/05/30 07:54:18;;;;;;;22.30;8.40;;;;;;;23.67;49.43;100348.89;106316;1283;61411;-80
2022/05/30 07:56:45;;;;;;;17.90;7.40;;;;;;;23.68;49.49;100349.52;105783;1284;61491;-79
2022/05/30 07:59:11;;;;;;;17.70;7.60;;;;;;;23.68;49.57;100355.05;106284;1283;74979;-80
2022/05/30 08:01:36;;;;;;;18.10;7.80;;;;;;;23.72;49.63;100353.27;106478;1284;61455;-80
2022/05/30 08:04:02;;;;;;;21.90;8.10;;;;;;;23.78;49.84;100355.08;106689;1282;61362;-80
2022/05/30 08:06:28;;;;;;;14.90;7.70;;;;;;;23.80;50.00;100359.38;106943;1283;59703;-80
2022/05/30 08:08:54;;;;;;;15.40;7.30;;;;;;;23.84;50.06;100364.95;107310;1283;59597;-80
2022/05/30 08:11:21;;;;;;;13.30;7.50;;;;;;;23.88;50.03;100369.22;107482;1282;59507;-80
2022/05/30 08:13:47;;;;;;;19.90;8.40;;;;;;;23.88;49.88;100370.73;107175;1284;59144;-80
2022/05/30 08:16:16;;;;;;;13.70;7.00;;;;;;;23.83;49.69;100374.92;107423;1283;59231;-80
2022/05/30 08:18:42;;;;;;;15.10;7.30;;;;;;;23.78;49.45;100378.08;107434;1283;59459;-79
2022/05/30 08:21:08;;;;;;;11.40;7.00;;;;;;;23.74;49.32;100378.23;107348;1282;59452;-80
2022/05/30 08:23:33;;;;;;;15.00;6.50;;;;;;;23.77;49.47;100376.53;106707;1283;61386;-79
2022/05/30 08:25:59;;;;;;;21.00;6.90;;;;;;;23.81;49.39;100381.95;106672;1283;59349;-81
2022/05/30 08:28:25;;;;;;;14.50;7.00;;;;;;;23.84;49.38;100383.46;106395;1283;59532;-80
2022/05/30 08:30:50;;;;;;;10.20;6.50;;;;;;;23.88;49.32;100389.61;105668;1284;74457;-80
2022/05/30 08:33:18;;;;;;;17.60;7.10;;;;;;;23.90;49.24;100390.98;106844;1282;59471;-80
2022/05/30 08:35:47;;;;;;;12.60;6.50;;;;;;;23.93;49.26;100396.69;106731;1284;61124;-79
2022/05/30 08:38:13;;;;;;;;;;;;;;;23.95;49.36;100399.42;106748;1283;71531;-80
2022/05/30 08:43:27;;;;;;;18.00;7.90;;;;;;;23.97;49.43;100409.64;105933;1283;61199;-80
2022/05/30 08:46:09;;;;;;;18.50;8.10;;;;;;;23.97;49.52;100410.73;106345;1284;61148;-80
2022/05/30 08:48:46;;;;;;;17.60;7.80;;;;;;;23.97;49.53;100412.05;106747;1283;72849;-80
2022/05/30 08:51:15;;;;;;;24.00;7.90;;;;;;;23.94;49.50;100412.81;107103;1282;74603;-80
2022/05/30 08:54:13;;;;;;;18.20;8.40;;;;;;;23.92;49.55;100410.27;107455;1282;61245;-81
2022/05/30 08:56:40;;;;;;;17.10;8.10;;;;;;;23.90;49.66;100414.70;107063;1283;60761;-80
2022/05/30 08:59:27;;;;;;;16.00;7.80;;;;;;;23.91;49.61;100412.70;106697;1283;73691;-80
2022/05/30 09:02:10;;;;;;;13.80;7.20;;;;;;;23.91;49.57;100408.91;106902;1283;75808;-80
2022/05/30 09:04:55;;;;;;;23.30;7.40;;;;;;;23.92;49.68;100410.65;106580;1284;61431;-82
2022/05/30 09:07:46;;;;;;;20.10;7.60;;;;;;;23.93;49.72;100410.34;107601;1283;60217;-80
2022/05/30 09:10:25;;;;;;;23.50;7.50;;;;;;;23.97;49.94;100405.73;107561;1283;72720;-80
2022/05/30 09:12:56;;;;;;;22.70;7.70;;;;;;;23.97;49.95;100405.36;107258;1284;74688;-80
2022/05/30 09:15:49;;;;;;;14.30;7.00;;;;;;;23.96;49.86;100401.35;107275;1283;60414;-80
2022/05/30 09:18:22;;;;;;;15.20;7.10;;;;;;;23.95;49.73;100407.00;106805;1282;61495;-80
2022/05/30 09:20:49;;;;;;;15.80;7.50;;;;;;;23.94;49.65;100406.18;106867;1284;74027;-80
2022/05/30 09:23:14;;;;;;;13.10;7.30;;;;;;;23.91;49.46;100407.64;106487;1284;74874;-81
2022/05/30 09:25:57;;;;;;;17.70;7.20;;;;;;;23.88;49.40;100408.29;106692;1283;62401;-81
2022/05/30 09:28:31;;;;;;;12.40;7.40;;;;;;;23.84;49.23;100411.89;106673;1283;61104;-80
2022/05/30 09:31:10;;;;;;;18.10;8.10;;;;;;;23.80;49.29;100412.37;106645;1283;71794;-81
2022/05/30 09:33:39;;;;;;;20.50;7.60;;;;;;;23.82;49.39;100409.17;107237;1283;75703;-81
2022/05/30 09:36:24;;;;;;;28.40;8.40;;;;;;;23.84;49.31;100411.10;106692;1283;60440;-80
2022/05/30 09:38:59;;;;;;;31.40;7.50;;;;;;;23.87;49.44;100416.05;106881;1283;61928;-81
2022/05/30 09:41:29;;;;;;;18.90;7.60;;;;;;;23.90;49.52;100414.45;106879;1283;72629;-80
2022/05/30 09:43:58;;;;;;;18.90;7.20;;;;;;;23.90;49.40;100421.39;106635;1284;74591;-80
2022/05/30 09:46:34;;;;;;;20.10;7.90;;;;;;;23.90;49.32;100423.35;106862;1283;60267;-81
2022/05/30 09:49:21;;;;;;;16.70;7.40;;;;;;;23.89;49.14;100421.98;106647;1283;61509;-80
2022/05/30 09:51:48;;;;;;;18.90;7.50;;;;;;;23.89;49.20;100423.06;107054;1284;73813;-80
2022/05/30 09:54:23;;;;;;;26.60;8.20;;;;;;;23.90;49.08;100427.56;106502;1283;74892;-80
2022/05/30 09:56:49;;;;;;;24.70;8.00;;;;;;;23.91;49.28;100426.52;105688;1283;61393;-79
2022/05/30 09:59:37;;;;;;;14.60;7.10;;;;;;;23.95;49.42;100427.29;106120;1283;60575;-80
2022/05/30 10:02:03;;;;;;;15.80;7.90;;;;;;;23.95;49.43;100430.48;107220;1284;73633;-79
2022/05/30 10:04:36;;;;;;;19.80;7.80;;;;;;;23.96;49.38;100427.20;107034;1283;59777;-78
2022/05/30 10:07:13;;;;;;;16.20;7.20;;;;;;;23.96;49.25;100429.16;107431;1282;60525;-80
2022/05/30 10:09:51;;;;;;;11.60;6.90;;;;;;;23.97;49.26;100431.75;106924;1283;60505;-80
2022/05/30 10:12:46;;;;;;;14.10;6.80;;;;;;;23.97;49.24;100424.62;107262;1282;73713;-80
2022/05/30 10:15:31;;;;;;;12.90;7.10;;;;;;;23.96;49.12;100421.05;107241;1283;74660;-83
2022/05/30 10:18:18;;;;;;;19.70;7.30;;;;;;;23.95;49.05;100419.72;107414;1283;61350;-81
2022/05/30 10:20:49;;;;;;;9.50;6.40;;;;;;;23.96;48.99;100419.06;107299;1282;61613;-81
2022/05/30 10:30:07;;;;;;;12.40;7.10;;;;;;;23.96;48.70;100411.53;107179;1283;60064;-81
2022/05/30 10:32:46;;;;;;;12.00;6.70;;;;;;;23.97;48.63;100407.91;107336;1283;60528;-81
2022/05/30 10:35:11;;;;;;;;;;;;;;;23.97;48.62;100406.58;107434;1284;72846;-81
2022/05/30 10:38:14;;;;;;;11.20;6.80;;;;;;;23.94;48.67;100407.22;107561;1282;59596;-81
2022/05/30 10:41:18;;;;;;;11.50;7.00;;;;;;;23.98;48.81;100409.75;107489;1283;60340;-81
2022/05/30 10:43:56;;;;;;;12.80;7.20;;;;;;;24.01;48.62;100411.50;107189;1282;60553;-80
2022/05/30 10:46:27;;;;;;;10.70;6.60;;;;;;;24.01;48.63;100414.65;107654;1282;73872;-80
2022/05/30 10:49:04;;;;;;;11.20;6.80;;;;;;;24.03;48.58;100411.27;107478;1283;74495;-80
2022/05/30 10:51:34;;;;;;;18.30;7.40;;;;;;;24.04;48.52;100409.71;107280;1284;60375;-78
2022/05/30 10:54:11;;;;;;;16.40;7.30;;;;;;;24.05;48.37;100406.45;106931;1284;60312;-81
2022/05/30 10:56:39;;;;;;;12.80;7.40;;;;;;;24.04;48.32;100403.98;107110;1283;73809;-80
2022/05/30 10:59:26;;;;;;;13.60;7.00;;;;;;;24.06;48.27;100408.46;106813;1284;75754;-82
2022/05/30 11:02:18;;;;;;;13.10;6.90;;;;;;;24.07;48.39;100407.28;107488;1282;60328;-79
2022/05/30 11:05:21;;;;;;;14.00;7.30;;;;;;;24.08;48.39;100405.98;107539;1282;60636;-80
2022/05/30 11:08:08;;;;;;;11.80;6.80;;;;;;;24.09;48.37;100408.42;107200;1282;72550;-81
2022/05/30 11:10:56;;;;;;;17.00;7.20;;;;;;;24.10;48.31;100407.59;107532;1283;75631;-80
2022/05/30 11:13:45;;;;;;;13.70;7.90;;;;;;;24.12;48.32;100412.09;106630;1283;61052;-80
2022/05/30 11:16:21;;;;;;;15.60;7.00;;;;;;;24.14;48.34;100409.20;106687;1283;61227;-80
2022/05/30 11:19:07;;;;;;;16.50;7.10;;;;;;;24.16;48.20;100409.96;106873;1282;72753;-80
2022/05/30 11:21:41;;;;;;;13.10;6.90;;;;;;;24.16;48.18;100409.93;106888;1283;74178;-79
2022/05/30 11:24:07;;;;;;;14.20;7.50;;;;;;;24.17;48.25;100410.33;106657;1283;61262;-80
2022/05/30 11:27:06;;;;;;;15.90;7.40;;;;;;;24.17;48.22;100409.65;106636;1283;60145;-81
2022/05/30 11:30:17;;;;;;;12.40;7.40;;;;;;;24.16;48.10;100409.00;106676;1282;72793;-81
2022/05/30 11:33:04;;;;;;;19.70;7.70;;;;;;;24.17;48.23;100406.75;106022;1290;76177;-80
2022/05/30 11:35:37;;;;;;;16.70;7.70;;;;;;;24.18;48.21;100404.86;105911;1290;61511;-81
2022/05/30 11:38:27;;;;;;;32.20;8.60;;;;;;;24.17;48.04;100403.86;105888;1290;61506;-80
2022/05/30 11:41:24;;;;;;;13.40;7.90;;;;;;;24.17;48.11;100401.56;105855;1290;73872;-80
2022/05/30 11:44:14;;;;;;;18.00;7.20;;;;;;;24.18;48.26;100408.80;105906;1290;74456;-80
2022/05/30 11:47:01;;;;;;;17.40;7.90;;;;;;;24.19;48.34;100410.90;106020;1290;61247;-80